Time;durP1;ratioP1;P1;durP2;ratioP2;P2;SDS_P1;SDS_P2;PMS_P1;PMS_P2;Temp;Humidity;BMP_temperature;BMP_pressure;BME280_temperature;BME280_humidity;BME280_pressure;Samples;Min_cycle;Max_cycle;Signal;HPM_P1;HPM_P2
2021/09/10 00:00:50;;;;;;;8.90;8.15;;;;;;;19.57;71.70;100460.22;5074444;28;20477;-51
2021/09/10 00:03:16;;;;;;;8.75;7.95;;;;;;;19.57;71.67;100458.41;5071700;28;20123;-50
2021/09/10 00:05:42;;;;;;;9.30;8.35;;;;;;;19.58;71.67;100461.94;5070475;28;20036;-51
2021/09/10 00:08:08;;;;;;;9.07;8.18;;;;;;;19.57;71.69;100458.41;5070424;28;20037;-51
2021/09/10 00:10:34;;;;;;;8.63;7.82;;;;;;;19.57;71.67;100463.75;5070455;28;20034;-51
2021/09/10 00:13:00;;;;;;;9.10;8.20;;;;;;;19.57;71.73;100453.06;5070016;28;20369;-51
2021/09/10 00:15:26;;;;;;;8.57;7.82;;;;;;;19.55;71.70;100452.28;5070193;28;20413;-51
2021/09/10 00:17:51;;;;;;;9.32;8.43;;;;;;;19.57;71.60;100446.84;5071379;28;20044;-51
2021/09/10 00:20:17;;;;;;;8.30;7.50;;;;;;;19.57;71.73;100453.06;5072139;28;20078;-51
2021/09/10 00:22:43;;;;;;;9.80;8.90;;;;;;;19.57;71.73;100450.38;5057915;28;20027;-51
2021/09/10 00:25:10;;;;;;;9.45;8.65;;;;;;;19.56;71.69;100445.97;5055281;28;20088;-51
2021/09/10 00:27:36;;;;;;;8.68;7.88;;;;;;;19.56;71.72;100459.34;5054499;28;20032;-51
2021/09/10 00:30:03;;;;;;;8.95;8.15;;;;;;;19.56;71.59;100453.13;5069398;28;20047;-51
2021/09/10 00:32:29;;;;;;;8.85;8.15;;;;;;;19.55;71.64;100460.31;5055755;28;20040;-51
2021/09/10 00:34:55;;;;;;;9.05;8.27;;;;;;;19.55;71.73;100465.66;5069732;28;20062;-51
2021/09/10 00:37:21;;;;;;;9.13;8.32;;;;;;;19.55;71.81;100465.66;5069751;28;20546;-51
2021/09/10 00:39:47;;;;;;;8.77;7.95;;;;;;;19.55;71.85;100471.00;5069508;28;20047;-51
2021/09/10 00:42:13;;;;;;;8.98;8.18;;;;;;;19.55;71.66;100468.34;5059534;28;20397;-51
2021/09/10 00:44:39;;;;;;;8.60;7.70;;;;;;;19.56;71.63;100477.19;5075720;28;20513;-51
2021/09/10 00:47:04;;;;;;;9.55;8.65;;;;;;;19.54;71.71;100474.59;5071990;28;20060;-51
2021/09/10 00:49:31;;;;;;;9.05;8.25;;;;;;;19.54;71.65;100476.44;5071179;28;20037;-51
2021/09/10 00:51:57;;;;;;;10.02;9.23;;;;;;;19.54;71.72;100479.09;5057397;28;20174;-51
2021/09/10 00:54:24;;;;;;;10.00;9.10;;;;;;;19.54;71.64;100479.94;5072441;28;20025;-51
2021/09/10 00:56:50;;;;;;;9.57;8.77;;;;;;;19.54;71.82;100476.44;5069829;28;20073;-51
2021/09/10 00:59:16;;;;;;;9.63;8.63;;;;;;;19.54;71.66;100473.75;5069666;28;20028;-51
2021/09/10 01:01:42;;;;;;;9.55;8.63;;;;;;;19.54;71.69;100471.94;5073077;28;20024;-51
2021/09/10 01:04:08;;;;;;;9.90;9.02;;;;;;;19.53;71.79;100474.66;5056490;28;20031;-51
2021/09/10 01:06:34;;;;;;;9.32;8.50;;;;;;;19.53;71.68;100472.88;5070028;28;20032;-51
2021/09/10 01:09:01;;;;;;;10.02;9.02;;;;;;;19.53;71.75;100472.00;5068690;28;20044;-51
2021/09/10 01:11:28;;;;;;;9.35;8.55;;;;;;;19.52;71.68;100476.50;5069853;28;20620;-51
2021/09/10 01:13:54;;;;;;;9.60;8.65;;;;;;;19.52;71.71;100471.16;5069417;28;20032;-51
2021/09/10 01:16:20;;;;;;;9.57;8.68;;;;;;;19.52;71.66;100476.50;5070969;28;20112;-51
2021/09/10 01:18:46;;;;;;;9.20;8.30;;;;;;;19.52;71.68;100471.16;5074103;28;20413;-51
2021/09/10 01:21:12;;;;;;;10.10;9.13;;;;;;;19.53;71.59;100466.66;5070437;28;20028;-51
2021/09/10 01:23:38;;;;;;;9.48;8.68;;;;;;;19.51;71.74;100477.47;5071115;28;20020;-51
2021/09/10 01:26:04;;;;;;;9.90;9.02;;;;;;;19.52;71.65;100475.63;5069649;28;20536;-50
2021/09/10 01:28:29;;;;;;;9.63;8.73;;;;;;;19.51;71.71;100477.47;5069641;28;20031;-51
2021/09/10 01:30:55;;;;;;;9.85;8.88;;;;;;;19.51;71.67;100485.47;5073124;28;20078;-51
2021/09/10 01:33:22;;;;;;;9.52;8.68;;;;;;;19.51;71.63;100476.56;5054766;28;20028;-51
2021/09/10 01:35:47;;;;;;;10.20;9.20;;;;;;;19.50;71.73;100473.03;5068864;28;20032;-51
2021/09/10 01:38:13;;;;;;;10.20;9.30;;;;;;;19.51;71.64;100479.25;5069077;28;20031;-51
2021/09/10 01:40:39;;;;;;;10.65;9.65;;;;;;;19.50;71.63;100473.03;5068565;28;20024;-51
2021/09/10 01:43:06;;;;;;;9.68;8.88;;;;;;;19.48;71.71;100475.78;5069637;28;20025;-51
2021/09/10 01:45:32;;;;;;;9.40;8.60;;;;;;;19.49;71.74;100482.00;5069690;28;20063;-51
2021/09/10 01:47:59;;;;;;;10.40;9.38;;;;;;;19.49;71.58;100479.31;5037677;28;20057;-51
2021/09/10 01:50:25;;;;;;;10.40;9.50;;;;;;;19.49;71.51;100476.66;5073757;28;20077;-51
2021/09/10 01:52:52;;;;;;;10.32;9.43;;;;;;;19.48;71.63;100483.78;5070111;28;20020;-51
2021/09/10 01:55:19;;;;;;;10.20;9.30;;;;;;;19.48;71.55;100480.28;5052383;28;20534;-51
2021/09/10 01:57:48;;;;;;;10.65;9.70;;;;;;;19.48;71.62;100474.94;5068875;28;20021;-51
2021/09/10 02:00:15;;;;;;;10.18;9.27;;;;;;;19.48;71.54;100478.44;5068620;28;20025;-51
2021/09/10 02:02:41;;;;;;;11.00;10.00;;;;;;;19.48;71.64;100480.28;5073990;28;20487;-51
2021/09/10 02:05:09;;;;;;;10.43;9.52;;;;;;;19.48;71.61;100482.94;5074430;28;20042;-51
2021/09/10 02:07:35;;;;;;;11.15;10.05;;;;;;;19.47;71.59;100482.06;5070964;28;20028;-51
2021/09/10 02:10:01;;;;;;;10.27;9.38;;;;;;;19.47;71.57;100478.53;5073183;28;20028;-51
2021/09/10 02:12:26;;;;;;;9.93;9.02;;;;;;;19.47;71.62;100486.53;5060147;28;20085;-51
2021/09/10 02:14:54;;;;;;;10.95;9.85;;;;;;;19.46;71.64;100491.03;5072723;28;20028;-51
2021/09/10 02:17:20;;;;;;;10.07;9.18;;;;;;;19.46;71.50;100482.16;5056682;28;20024;-51
2021/09/10 02:19:46;;;;;;;10.82;9.85;;;;;;;19.47;71.60;100489.22;5072240;28;20074;-51
2021/09/10 02:22:12;;;;;;;10.82;9.90;;;;;;;19.46;71.68;100484.81;5073153;28;20029;-51
2021/09/10 02:24:37;;;;;;;10.18;9.25;;;;;;;19.46;71.53;100484.81;5075992;28;20624;-51
2021/09/10 02:27:03;;;;;;;11.02;10.05;;;;;;;19.44;71.53;100484.03;5070798;28;20553;-51
2021/09/10 02:29:29;;;;;;;10.32;9.32;;;;;;;19.45;71.50;100480.41;5074557;28;20028;-51
2021/09/10 02:31:55;;;;;;;10.52;9.63;;;;;;;19.44;71.60;100484.91;5074343;28;20028;-51
2021/09/10 02:34:21;;;;;;;10.73;9.82;;;;;;;19.45;71.63;100494.66;5072827;28;20040;-51
2021/09/10 02:36:47;;;;;;;10.23;9.23;;;;;;;19.43;71.61;100480.50;5073066;28;20568;-51
2021/09/10 02:39:12;;;;;;;10.38;9.38;;;;;;;19.43;71.51;100482.28;5070878;28;20025;-50
2021/09/10 02:41:39;;;;;;;10.40;9.55;;;;;;;19.42;71.75;100473.44;5057550;28;20032;-51
2021/09/10 02:44:06;;;;;;;10.25;9.35;;;;;;;19.42;71.74;100475.22;5072908;28;20047;-51
2021/09/10 02:46:33;;;;;;;11.05;10.05;;;;;;;19.43;71.53;100476.94;5042667;28;20513;-51
2021/09/10 02:48:59;;;;;;;10.73;9.73;;;;;;;19.42;71.43;100475.22;5071850;28;20433;-51
2021/09/10 02:51:26;;;;;;;10.77;9.77;;;;;;;19.41;71.43;100482.38;5073376;28;20024;-51
2021/09/10 02:53:51;;;;;;;10.45;9.55;;;;;;;19.41;71.40;100478.84;5057594;28;20094;-51
2021/09/10 02:56:18;;;;;;;11.10;10.05;;;;;;;19.41;71.58;100489.53;5073916;28;20486;-51
2021/09/10 02:58:43;;;;;;;10.27;9.48;;;;;;;19.40;71.46;100494.00;5059180;28;20024;-51
2021/09/10 03:01:09;;;;;;;11.25;10.15;;;;;;;19.40;71.50;100499.34;5072276;28;20058;-51
2021/09/10 03:03:35;;;;;;;11.32;10.23;;;;;;;19.40;71.43;100498.50;5074309;28;20035;-51
2021/09/10 03:06:01;;;;;;;9.77;8.85;;;;;;;19.40;71.49;100503.88;5074991;28;20020;-51
2021/09/10 03:08:27;;;;;;;11.35;10.23;;;;;;;19.38;71.57;100503.94;5071762;28;20020;-51
2021/09/10 03:10:53;;;;;;;10.95;9.85;;;;;;;19.39;71.51;100502.09;5075011;28;20111;-51
2021/09/10 03:13:19;;;;;;;10.80;9.80;;;;;;;19.38;71.36;100495.91;5074454;28;20024;-51
2021/09/10 03:15:45;;;;;;;10.07;9.18;;;;;;;19.37;71.49;100502.19;5072361;28;20052;-51
2021/09/10 03:18:11;;;;;;;10.43;9.43;;;;;;;19.39;71.54;100502.09;5075624;28;20016;-51
2021/09/10 03:20:37;;;;;;;10.13;9.23;;;;;;;19.38;71.40;100495.03;5056486;28;20028;-51
2021/09/10 03:23:03;;;;;;;11.27;10.25;;;;;;;19.36;71.42;100492.44;5074219;28;20430;-50
2021/09/10 03:25:29;;;;;;;10.50;9.60;;;;;;;19.36;71.53;100495.09;5075112;28;20056;-51
2021/09/10 03:27:54;;;;;;;10.10;9.05;;;;;;;19.35;71.42;100486.22;5061947;28;20445;-51
2021/09/10 03:30:21;;;;;;;11.18;10.07;;;;;;;19.35;71.49;100488.88;5070275;28;20032;-51
2021/09/10 03:32:47;;;;;;;11.15;10.15;;;;;;;19.34;71.55;100489.84;5069791;28;20063;-51
2021/09/10 03:35:13;;;;;;;10.25;9.35;;;;;;;19.35;71.43;100490.72;5071844;28;20029;-51
2021/09/10 03:37:39;;;;;;;10.27;9.38;;;;;;;19.34;71.34;100483.63;5054201;28;20546;-51
2021/09/10 03:40:06;;;;;;;11.25;10.07;;;;;;;19.33;71.45;100482.75;5071221;28;20024;-51
2021/09/10 03:42:32;;;;;;;10.85;9.85;;;;;;;19.33;71.43;100482.75;5071898;28;20070;-51
2021/09/10 03:44:58;;;;;;;10.57;9.68;;;;;;;19.34;71.42;100480.97;5070174;28;20048;-51
2021/09/10 03:47:24;;;;;;;10.52;9.52;;;;;;;19.33;71.36;100482.75;5071525;28;20490;-51
2021/09/10 03:49:50;;;;;;;11.00;10.00;;;;;;;19.32;71.37;100481.03;5065525;28;20063;-49
2021/09/10 03:52:16;;;;;;;10.88;9.82;;;;;;;19.32;71.25;100486.38;5070973;28;20490;-51
2021/09/10 03:54:41;;;;;;;11.50;10.40;;;;;;;19.32;71.48;100485.50;5052911;28;20444;-51
2021/09/10 03:57:07;;;;;;;10.48;9.57;;;;;;;19.31;71.39;100489.97;5068404;28;20447;-51
2021/09/10 03:59:33;;;;;;;11.35;10.30;;;;;;;19.30;71.32;100488.25;5069283;28;20036;-51
2021/09/10 04:01:59;;;;;;;12.60;11.32;;;;;;;19.30;71.29;100488.25;5069241;28;20028;-51
2021/09/10 04:04:25;;;;;;;12.13;10.52;;;;;;;19.29;71.43;100502.56;5066345;28;20497;-51
2021/09/10 04:06:51;;;;;;;10.63;9.68;;;;;;;19.31;71.37;100499.81;5055221;28;20025;-51
2021/09/10 04:09:17;;;;;;;11.63;10.50;;;;;;;19.29;71.19;100497.22;5070126;28;20024;-51
2021/09/10 04:11:43;;;;;;;11.00;10.00;;;;;;;19.30;71.33;100498.06;5070415;28;20024;-51
2021/09/10 04:14:08;;;;;;;11.73;10.63;;;;;;;19.29;71.39;100496.34;5052648;28;20050;-50
2021/09/10 04:16:35;;;;;;;11.02;10.02;;;;;;;19.30;71.25;100500.75;5070395;28;20021;-51
2021/09/10 04:19:01;;;;;;;11.57;10.38;;;;;;;19.27;71.28;100499.09;5067539;28;20028;-51
2021/09/10 04:21:27;;;;;;;10.90;9.68;;;;;;;19.28;71.35;100503.53;5064902;28;20497;-49
2021/09/10 04:23:54;;;;;;;11.15;10.02;;;;;;;19.28;71.22;100508.88;5053892;28;20138;-50
2021/09/10 04:26:19;;;;;;;11.18;10.15;;;;;;;19.27;71.29;100507.09;5067891;28;20024;-51
2021/09/10 04:28:47;;;;;;;11.18;10.07;;;;;;;19.27;71.32;100514.28;5066356;28;20030;-50
2021/09/10 04:31:17;;;;;;;10.63;9.63;;;;;;;19.26;71.25;100508.06;5068597;28;20074;-49
2021/09/10 04:33:43;;;;;;;10.90;9.90;;;;;;;19.26;71.27;100509.84;5066397;28;20024;-50
2021/09/10 04:36:09;;;;;;;10.57;9.60;;;;;;;19.26;71.26;100502.72;5069352;28;20135;-50
2021/09/10 04:38:36;;;;;;;11.55;10.45;;;;;;;19.25;71.22;100511.69;5068061;28;20013;-49
2021/09/10 04:41:02;;;;;;;11.52;10.43;;;;;;;19.24;71.37;100517.94;5069412;28;20039;-51
2021/09/10 04:43:27;;;;;;;12.07;10.88;;;;;;;19.25;71.35;100516.16;5068541;28;20028;-50
2021/09/10 04:45:53;;;;;;;11.27;10.30;;;;;;;19.24;71.15;100523.28;5069041;28;20528;-50
2021/09/10 04:48:19;;;;;;;11.02;9.93;;;;;;;19.23;71.33;100525.13;5069379;28;20513;-51
2021/09/10 04:50:45;;;;;;;10.68;9.50;;;;;;;19.22;71.22;100523.41;5048523;28;20135;-51
2021/09/10 04:53:11;;;;;;;11.10;10.00;;;;;;;19.22;71.27;100518.06;5053206;28;20393;-49
2021/09/10 04:55:37;;;;;;;12.07;10.90;;;;;;;19.22;71.26;100534.09;5069270;28;20032;-49
2021/09/10 04:58:03;;;;;;;11.00;10.00;;;;;;;19.21;71.29;100518.97;5066051;28;20024;-49
2021/09/10 05:00:28;;;;;;;10.50;9.55;;;;;;;19.22;71.07;100525.19;5069239;28;20107;-50
2021/09/10 05:02:54;;;;;;;10.63;9.63;;;;;;;19.21;71.32;100521.63;5069657;28;20024;-52
2021/09/10 05:05:20;;;;;;;11.68;10.48;;;;;;;19.20;71.18;100522.59;5069736;28;20093;-50
2021/09/10 05:07:46;;;;;;;11.95;10.95;;;;;;;19.21;71.29;100523.47;5068884;28;20028;-51
2021/09/10 05:10:12;;;;;;;10.68;9.70;;;;;;;19.20;71.19;100522.59;5067258;28;20028;-50
2021/09/10 05:12:37;;;;;;;10.90;9.90;;;;;;;19.20;71.07;100527.06;5066246;28;20024;-50
2021/09/10 05:15:04;;;;;;;11.98;10.82;;;;;;;19.20;71.16;100524.38;5066719;28;20028;-49
2021/09/10 05:17:30;;;;;;;10.40;9.40;;;;;;;19.19;71.09;100531.56;5053387;28;20032;-51
2021/09/10 05:19:57;;;;;;;9.70;8.88;;;;;;;19.20;71.17;100532.41;5056044;28;20032;-49
2021/09/10 05:22:23;;;;;;;10.85;9.95;;;;;;;19.19;71.07;100534.22;5069683;28;20394;-50
2021/09/10 05:24:49;;;;;;;10.70;9.70;;;;;;;19.19;71.08;100544.03;5067965;28;20025;-51
2021/09/10 05:27:15;;;;;;;10.40;9.50;;;;;;;19.18;71.14;100550.34;5053620;28;20055;-49
2021/09/10 05:29:41;;;;;;;10.15;9.35;;;;;;;19.18;71.19;100553.00;5069636;28;20040;-50
2021/09/10 05:32:06;;;;;;;10.75;9.75;;;;;;;19.18;71.26;100556.53;5054006;28;20028;-50
2021/09/10 05:34:32;;;;;;;11.05;10.05;;;;;;;19.17;71.19;100551.28;5069169;28;20028;-51
2021/09/10 05:36:58;;;;;;;10.60;9.70;;;;;;;19.17;71.07;100548.63;5072861;28;20043;-51
2021/09/10 05:39:24;;;;;;;10.68;9.70;;;;;;;19.16;71.08;100555.75;5073639;28;20056;-49
2021/09/10 05:41:50;;;;;;;10.70;9.70;;;;;;;19.16;71.19;100560.22;5072406;28;20024;-50
2021/09/10 05:44:15;;;;;;;10.65;9.57;;;;;;;19.16;71.17;100561.09;5070666;28;20070;-51
2021/09/10 05:46:41;;;;;;;10.38;9.38;;;;;;;19.16;71.08;100560.22;5071845;28;20048;-49
2021/09/10 05:49:07;;;;;;;11.68;10.65;;;;;;;19.15;71.09;100556.69;5072602;28;20039;-50
2021/09/10 05:51:33;;;;;;;11.13;10.10;;;;;;;19.16;71.04;100562.91;5055971;28;20058;-49
2021/09/10 05:53:58;;;;;;;9.55;8.68;;;;;;;19.16;71.04;100555.75;5072487;28;20074;-50
2021/09/10 05:56:24;;;;;;;10.45;9.43;;;;;;;19.16;71.15;100566.44;5070343;28;20062;-51
2021/09/10 05:58:50;;;;;;;10.68;9.68;;;;;;;19.16;71.03;100554.88;5069997;28;20016;-49
2021/09/10 06:01:16;;;;;;;10.43;9.52;;;;;;;19.15;71.03;100562.06;5070018;28;20443;-49
2021/09/10 06:03:42;;;;;;;10.65;9.65;;;;;;;19.15;71.05;100572.75;5071543;28;20024;-50
2021/09/10 06:06:09;;;;;;;11.55;10.25;;;;;;;19.16;70.97;100576.25;5056775;28;20032;-50
2021/09/10 06:08:38;;;;;;;10.57;9.68;;;;;;;19.15;71.06;100575.41;5072916;28;20027;-51
2021/09/10 06:11:05;;;;;;;11.40;10.32;;;;;;;19.16;71.06;100581.59;5056882;28;20035;-49
2021/09/10 06:13:30;;;;;;;11.30;10.27;;;;;;;19.14;71.10;100567.47;5072804;28;20104;-49
2021/09/10 06:15:56;;;;;;;10.40;9.50;;;;;;;19.16;71.04;100578.94;5072625;28;20103;-50
2021/09/10 06:18:22;;;;;;;10.20;9.20;;;;;;;19.15;71.12;100583.44;5070835;28;20024;-50
2021/09/10 06:20:48;;;;;;;11.38;10.23;;;;;;;19.15;71.14;100583.44;5071781;28;20033;-49
2021/09/10 06:23:14;;;;;;;9.65;8.63;;;;;;;19.15;71.04;100571.88;5072340;28;20504;-51
2021/09/10 06:25:40;;;;;;;11.15;10.13;;;;;;;19.16;71.02;100570.91;5071932;28;20486;-50
2021/09/10 06:28:06;;;;;;;10.60;9.70;;;;;;;19.15;71.05;100577.22;5072310;28;20078;-50
2021/09/10 06:30:31;;;;;;;10.82;9.82;;;;;;;19.15;71.14;100580.75;5072531;28;20389;-52
2021/09/10 06:32:57;;;;;;;11.02;10.10;;;;;;;19.16;71.06;100576.25;5068947;28;20035;-51
2021/09/10 06:35:23;;;;;;;10.35;9.25;;;;;;;19.16;71.13;100581.59;5070983;28;20085;-49
2021/09/10 06:37:49;;;;;;;10.60;9.60;;;;;;;19.16;70.88;100576.25;5072376;28;20024;-49
2021/09/10 06:40:15;;;;;;;10.25;9.35;;;;;;;19.17;71.07;100586.03;5072652;28;20398;-51
2021/09/10 06:42:42;;;;;;;10.73;9.63;;;;;;;19.17;71.03;100588.72;5072460;28;20020;-50
2021/09/10 06:45:09;;;;;;;10.02;9.23;;;;;;;19.17;71.04;100592.22;5068663;28;20027;-49
2021/09/10 06:47:35;;;;;;;9.75;8.85;;;;;;;19.17;70.90;100597.56;5071166;28;20494;-49
2021/09/10 06:50:02;;;;;;;10.07;9.18;;;;;;;19.17;71.01;100589.56;5072405;28;20031;-50
2021/09/10 06:52:28;;;;;;;10.57;9.57;;;;;;;19.17;71.20;100602.06;5071709;28;20037;-50
2021/09/10 06:54:54;;;;;;;9.75;8.85;;;;;;;19.17;71.14;100599.41;5072528;28;20024;-50
2021/09/10 06:57:20;;;;;;;10.50;9.50;;;;;;;19.18;71.10;100595.78;5072302;28;20017;-50
2021/09/10 06:59:46;;;;;;;10.13;9.23;;;;;;;19.17;71.05;100599.41;5072019;28;20020;-50
2021/09/10 07:02:11;;;;;;;9.45;8.65;;;;;;;19.16;71.33;100600.31;5056160;28;20030;-50
2021/09/10 07:04:37;;;;;;;10.48;9.57;;;;;;;19.16;71.32;100603.88;5072123;28;20016;-51
2021/09/10 07:07:03;;;;;;;9.77;8.93;;;;;;;19.16;71.43;100598.53;5071924;28;20020;-50
2021/09/10 07:09:29;;;;;;;10.23;9.32;;;;;;;19.17;71.28;100597.56;5071468;28;20062;-50
2021/09/10 07:11:55;;;;;;;10.15;9.23;;;;;;;19.16;71.49;100605.66;5071143;28;20040;-51
2021/09/10 07:14:21;;;;;;;10.88;9.88;;;;;;;19.16;71.25;100608.34;5069018;28;20520;-49
2021/09/10 07:16:47;;;;;;;10.73;9.75;;;;;;;19.17;71.31;100604.75;5071840;28;20467;-49
2021/09/10 07:19:12;;;;;;;10.23;9.32;;;;;;;19.18;71.16;100609.16;5071372;28;20031;-49
2021/09/10 07:21:38;;;;;;;9.88;8.93;;;;;;;19.18;71.42;100611.81;5069737;28;20029;-50
2021/09/10 07:24:05;;;;;;;10.88;9.88;;;;;;;19.18;71.39;100609.16;5071116;28;20035;-49
2021/09/10 07:26:31;;;;;;;10.07;9.18;;;;;;;19.19;71.39;100613.53;5071071;28;20063;-49
2021/09/10 07:28:57;;;;;;;10.43;9.43;;;;;;;19.17;71.51;100616.28;5055402;28;20331;-49
2021/09/10 07:31:23;;;;;;;9.57;8.73;;;;;;;19.17;71.69;100612.78;5071562;28;20324;-49
2021/09/10 07:33:50;;;;;;;9.70;8.90;;;;;;;19.16;71.68;100614.56;5069771;28;20101;-50
2021/09/10 07:36:17;;;;;;;9.77;8.88;;;;;;;19.16;71.96;100609.22;5071384;28;20115;-49
2021/09/10 07:38:42;;;;;;;9.90;8.90;;;;;;;19.17;71.62;100618.13;5071088;28;20040;-50
2021/09/10 07:41:08;;;;;;;9.95;9.00;;;;;;;19.18;71.58;100615.34;5056187;28;20024;-50
2021/09/10 07:43:34;;;;;;;9.75;8.95;;;;;;;19.20;71.51;100615.28;5070892;28;20031;-53
2021/09/10 07:46:00;;;;;;;9.88;8.93;;;;;;;19.21;71.63;100611.69;5056737;28;20028;-49
2021/09/10 07:48:27;;;;;;;10.32;9.32;;;;;;;19.18;71.89;100620.69;5070940;28;20104;-49
2021/09/10 07:50:52;;;;;;;10.35;9.35;;;;;;;19.20;71.92;100624.16;5071034;28;20043;-51
2021/09/10 07:53:19;;;;;;;9.77;8.88;;;;;;;19.19;71.90;100614.44;5068363;28;20470;-50
2021/09/10 07:55:45;;;;;;;10.55;9.60;;;;;;;19.18;72.16;100618.00;5071014;28;20017;-50
2021/09/10 07:58:10;;;;;;;10.52;9.50;;;;;;;19.21;72.21;100614.34;5055933;28;20016;-50
2021/09/10 08:00:36;;;;;;;9.60;8.60;;;;;;;19.21;72.30;100617.88;5069676;28;20038;-49
2021/09/10 08:03:02;;;;;;;11.75;10.52;;;;;;;19.21;72.41;100609.00;5070999;28;20036;-50
2021/09/10 08:05:28;;;;;;;10.13;8.73;;;;;;;19.22;72.38;100618.75;5070680;28;20500;-50
2021/09/10 08:07:54;;;;;;;10.00;9.10;;;;;;;19.20;72.58;100616.16;5070622;28;20521;-49
2021/09/10 08:10:20;;;;;;;10.30;9.20;;;;;;;19.22;72.40;100618.75;5070076;28;20020;-50
2021/09/10 08:12:47;;;;;;;10.90;9.55;;;;;;;19.22;72.73;100616.97;5070690;28;20020;-50
2021/09/10 08:15:15;;;;;;;10.35;8.82;;;;;;;19.21;72.60;100617.88;5066575;28;20435;-54
2021/09/10 08:17:41;;;;;;;11.00;9.90;;;;;;;19.22;72.71;100619.63;5069859;28;20031;-52
2021/09/10 08:20:08;;;;;;;10.55;9.45;;;;;;;19.21;73.02;100620.56;5069851;28;20048;-53
2021/09/10 08:22:35;;;;;;;10.77;9.68;;;;;;;19.22;73.19;100627.66;5070657;28;20051;-50
2021/09/10 08:25:03;;;;;;;11.07;9.98;;;;;;;19.23;73.21;100620.47;5069725;28;20047;-50
2021/09/10 08:27:29;;;;;;;10.82;9.73;;;;;;;19.21;73.22;100620.56;5068455;28;20063;-48
2021/09/10 08:29:56;;;;;;;11.02;9.80;;;;;;;19.23;73.58;100625.84;5070450;28;20064;-49
2021/09/10 08:32:23;;;;;;;10.65;9.65;;;;;;;19.25;73.24;100634.66;5068206;28;20491;-50
2021/09/10 08:34:49;;;;;;;10.73;9.60;;;;;;;19.25;73.53;100636.47;5068655;28;20048;-50
2021/09/10 08:37:15;;;;;;;10.27;9.20;;;;;;;19.24;73.57;100638.25;5068314;28;20575;-51
2021/09/10 08:39:41;;;;;;;11.02;10.02;;;;;;;19.22;73.56;100633.00;5066471;28;20032;-50
2021/09/10 08:42:07;;;;;;;10.68;9.68;;;;;;;19.25;73.53;100636.47;5067056;28;20112;-50
2021/09/10 08:44:34;;;;;;;10.85;9.77;;;;;;;19.24;73.66;100632.91;5067397;28;20024;-52
2021/09/10 08:47:00;;;;;;;11.20;10.02;;;;;;;19.22;73.67;100635.69;5053672;28;20030;-49
2021/09/10 08:49:26;;;;;;;12.77;10.52;;;;;;;19.27;73.76;100631.91;5068679;28;20020;-49
2021/09/10 08:51:52;;;;;;;10.98;9.27;;;;;;;19.27;73.50;100640.78;5053732;28;20464;-49
2021/09/10 08:54:18;;;;;;;10.38;9.48;;;;;;;19.27;73.82;100640.78;5050190;28;20379;-50
2021/09/10 08:56:44;;;;;;;10.70;9.70;;;;;;;19.28;73.61;100650.56;5069357;28;20035;-49
2021/09/10 08:59:18;;;;;;;11.35;10.23;;;;;;;19.29;73.85;100651.41;5070079;28;20024;-50
2021/09/10 09:01:52;;;;;;;11.32;10.13;;;;;;;19.29;73.69;100654.97;5070033;28;20027;-50
2021/09/10 09:04:19;;;;;;;11.10;9.93;;;;;;;19.29;73.89;100656.75;5037518;28;20490;-50
2021/09/10 09:06:52;;;;;;;11.75;10.65;;;;;;;19.30;73.74;100654.03;5053196;28;20394;-51
2021/09/10 09:09:39;;;;;;;10.60;9.60;;;;;;;19.31;73.96;100658.41;5069939;28;20028;-50
2021/09/10 09:12:11;;;;;;;11.95;10.85;;;;;;;19.32;73.90;100659.31;5069855;28;20386;-49
2021/09/10 09:14:49;;;;;;;11.80;10.48;;;;;;;19.33;73.98;100664.56;5066166;28;20021;-49
2021/09/10 09:17:33;;;;;;;10.52;9.52;;;;;;;19.35;73.94;100654.66;5068365;28;20028;-49
2021/09/10 09:20:20;;;;;;;11.27;10.07;;;;;;;19.35;74.02;100661.84;5068960;28;20037;-50
2021/09/10 09:22:54;;;;;;;11.18;10.10;;;;;;;19.36;73.69;100667.13;5068202;28;20060;-53
2021/09/10 09:25:25;;;;;;;9.98;8.93;;;;;;;19.38;74.02;100668.84;5067238;28;20032;-50
2021/09/10 09:27:51;;;;;;;;;;;;;;;19.39;74.36;100667.91;5069824;28;20107;-50
2021/09/10 09:30:38;;;;;;;11.13;9.57;;;;;;;19.39;74.35;100667.91;5066890;28;20014;-50
2021/09/10 09:33:04;;;;;;;11.75;10.50;;;;;;;19.39;74.23;100670.56;5068680;28;20079;-51
2021/09/10 09:35:31;;;;;;;11.18;9.98;;;;;;;19.39;74.21;100662.53;5069193;28;20446;-51
2021/09/10 09:37:57;;;;;;;14.35;10.70;;;;;;;19.40;74.47;100666.97;5069626;28;20028;-50
2021/09/10 09:40:33;;;;;;;10.95;9.88;;;;;;;19.41;74.29;100660.69;5068848;28;20166;-50
2021/09/10 09:42:59;;;;;;;10.40;9.40;;;;;;;19.43;74.57;100661.47;5069818;28;20024;-53
2021/09/10 09:45:26;;;;;;;12.32;11.13;;;;;;;19.44;74.26;100660.53;5068784;28;20033;-50
2021/09/10 09:47:52;;;;;;;11.93;10.82;;;;;;;19.43;74.48;100664.13;5069338;28;20017;-49
2021/09/10 09:50:20;;;;;;;10.80;9.80;;;;;;;19.44;74.28;100663.22;5069167;28;20040;-50
2021/09/10 09:52:50;;;;;;;11.38;10.27;;;;;;;19.46;74.55;100670.22;5052145;28;20067;-50
2021/09/10 09:55:17;;;;;;;11.38;10.27;;;;;;;19.47;73.85;100655.91;5064310;28;20016;-51
2021/09/10 09:57:43;;;;;;;11.25;10.15;;;;;;;19.48;73.84;100662.13;5069362;28;20024;-50
2021/09/10 10:00:10;;;;;;;11.63;10.52;;;;;;;19.49;74.80;100661.19;5069660;28;20558;-49
2021/09/10 10:02:37;;;;;;;11.52;10.52;;;;;;;19.49;74.24;100658.50;5066114;28;20028;-50
2021/09/10 10:05:06;;;;;;;11.27;10.18;;;;;;;19.51;74.29;100661.13;5066288;28;20036;-50
2021/09/10 10:07:41;;;;;;;12.25;10.93;;;;;;;19.52;73.82;100654.81;5035247;28;20032;-49
2021/09/10 10:10:07;;;;;;;12.85;11.15;;;;;;;19.53;74.66;100652.06;5049938;28;20380;-50
2021/09/10 10:12:34;;;;;;;12.45;11.25;;;;;;;19.53;74.93;100652.06;5068714;28;20024;-49
2021/09/10 10:15:25;;;;;;;11.02;9.98;;;;;;;19.55;74.85;100646.66;5049760;28;20438;-50
2021/09/10 10:17:52;;;;;;;13.48;12.23;;;;;;;19.55;74.85;100647.53;5065608;28;20145;-49
2021/09/10 10:20:46;;;;;;;12.40;11.20;;;;;;;19.56;74.47;100648.38;5053575;28;20017;-51
2021/09/10 10:23:43;;;;;;;12.30;11.13;;;;;;;19.57;74.95;100644.78;5069744;28;20537;-51
2021/09/10 10:26:28;;;;;;;13.00;11.70;;;;;;;19.56;73.94;100643.91;5071736;28;20060;-51
2021/09/10 10:29:06;;;;;;;11.82;10.73;;;;;;;19.58;74.53;100650.03;5072095;28;20032;-49
2021/09/10 10:32:04;;;;;;;12.50;11.20;;;;;;;19.59;75.13;100643.78;5057557;28;20032;-49
2021/09/10 10:34:31;;;;;;;11.30;10.18;;;;;;;19.59;75.18;100646.44;5071823;28;20020;-51
2021/09/10 10:36:57;;;;;;;11.25;10.05;;;;;;;19.61;74.95;100641.88;5072267;28;20021;-50
2021/09/10 10:39:31;;;;;;;11.88;10.10;;;;;;;19.60;74.50;100647.28;5072694;28;20012;-51
2021/09/10 10:42:02;;;;;;;12.77;11.57;;;;;;;19.61;74.01;100641.88;5071446;28;20031;-51
2021/09/10 10:44:34;;;;;;;12.85;11.65;;;;;;;19.63;74.96;100639.13;5056020;28;20090;-49
2021/09/10 10:47:11;;;;;;;11.70;10.45;;;;;;;19.65;74.89;100641.75;5055828;28;20656;-50
2021/09/10 10:49:39;;;;;;;11.90;10.88;;;;;;;19.66;74.96;100638.09;5070937;28;20025;-49
2021/09/10 10:52:23;;;;;;;12.82;11.52;;;;;;;19.66;74.77;100640.78;5072141;28;20074;-49
2021/09/10 10:55:17;;;;;;;12.02;10.82;;;;;;;19.67;74.57;100639.88;5072982;28;20027;-57
2021/09/10 10:57:43;;;;;;;11.95;10.80;;;;;;;19.66;74.94;100633.63;5071881;28;20492;-49
2021/09/10 11:00:28;;;;;;;11.60;10.50;;;;;;;19.68;74.91;100633.56;5054856;28;20033;-49
2021/09/10 11:03:16;;;;;;;11.55;10.45;;;;;;;19.66;74.16;100617.59;5072511;28;20155;-49
2021/09/10 11:05:46;;;;;;;11.35;10.25;;;;;;;19.68;73.99;100636.25;5070879;28;20036;-49
2021/09/10 11:08:17;;;;;;;11.80;10.60;;;;;;;19.69;75.30;100627.25;5071147;28;20032;-49
2021/09/10 11:10:43;;;;;;;11.85;10.65;;;;;;;19.69;75.16;100619.25;5069773;28;20482;-50
2021/09/10 11:13:09;;;;;;;12.50;11.35;;;;;;;19.70;74.72;100618.28;5069671;28;20048;-49
2021/09/10 11:15:36;;;;;;;11.13;10.07;;;;;;;19.70;74.08;100620.97;5056995;28;20099;-49
2021/09/10 11:18:09;;;;;;;12.52;11.30;;;;;;;19.71;74.31;100615.53;5054937;28;20753;-50